Saturday, November 18, 2017, 1:13 AM EST
Back to Local

KACY, Atlantic City International

Location: Absecon, NJ, United States Lat: 39.467
Local Time: 1:13 AM EST ( 6:13 GMT) Lon: -74.583
Time Zone: US/Eastern Elev: 75 ft

Show me the last for .
Show Coded

Time T Td Feel RH Dir Speed Gust Alt SLP Vis Weather Sky Remarks
2017-11-18 00:54 36 27 - 69 - Calm - 30.06 30.06 10 CLR 6-hr Min Temp (1am): 28.9°F
6-hr Max Temp (1am): 41.0°F
2017-11-17 23:54 36 27 32 69 250° 5 - 30.08 30.09 10 CLR 24-hr Min Temp (12am): 28.9°F
24-hr Max Temp (12am): 52.0°F
2017-11-17 22:54 35 27 - 72 - Calm - 30.10 30.10 10 CLR None
2017-11-17 21:54 36 27 32 69 270° 5 - 30.12 30.12 10 CLR None
2017-11-17 20:54 35 26 31 69 270° 5 - 30.12 30.12 10 CLR None
2017-11-17 19:54 36 26 33 66 200° 3 - 30.13 30.13 10 CLR None
2017-11-17 18:54 40 27 37 59 220° 5 - 30.11 30.11 10 CLR 6-hr Min Temp (7pm): 39.9°F
6-hr Max Temp (7pm): 52.0°F
2017-11-17 17:54 42 26 38 52 280° 6 - 30.11 30.11 10 CLR None
2017-11-17 16:54 44 25 40 46 300° 8 - 30.10 30.11 10 CLR None
2017-11-17 15:54 49 24 44 37 300° 13 - 30.09 30.09 10 CLR None
2017-11-17 14:54 51 24 - 34 300° 14 - 30.09 30.09 10 CLR None
2017-11-17 13:54 51 24 - 34 320° 17 24 30.08 30.08 10 CLR None
2017-11-17 12:54 51 26 - 37 310° 14 24 30.11 30.11 10 CLR Peak wind: 29 mph (26 kts) from 300° at 36 min
6-hr Min Temp (1pm): 39.9°F
6-hr Max Temp (1pm): 51.1°F
2017-11-17 11:54 50 26 42 39 310° 20 29 30.11 30.10 10 CLR None
2017-11-17 10:54 49 28 41 44 300° 20 25 30.12 30.12 10 CLR Peak wind: 29 mph (26 kts) from 310° at 17 min
2017-11-17 09:54 47 29 40 49 300° 17 - 30.14 30.13 10 CLR None
2017-11-17 08:54 45 31 36 57 280° 15 23 30.12 30.12 10 CLR None
2017-11-17 07:54 42 30 37 62 260° 9 - 30.12 30.12 10 BKN041 None
2017-11-17 06:54 41 30 35 64 260° 9 - 30.09 30.09 10 FEW043 6-hr Min Temp (7am): 39.9°F
6-hr Max Temp (7am): 43.0°F
2017-11-17 05:54 42 31 37 64 270° 8 - 30.06 30.06 10 BKN043 None
2017-11-17 04:54 40 31 35 69 280° 7 - 30.04 30.04 10 SCT041 None
2017-11-17 03:54 42 31 36 64 270° 12 - 30.03 30.03 10 BKN049 None
2017-11-17 02:54 42 31 36 64 280° 10 - 30.02 30.02 10 CLR None
2017-11-17 01:54 43 31 36 62 280° 13 - 30.00 30.00 10 CLR None

Support USWX by starting your Amazon purchase here.